Time;durP1;ratioP1;P1;durP2;ratioP2;P2;SDS_P1;SDS_P2;PMS_P1;PMS_P2;Temp;Humidity;BMP_temperature;BMP_pressure;BME280_temperature;BME280_humidity;BME280_pressure;Samples;Min_cycle;Max_cycle;Signal;HPM_P1;HPM_P2
2022/04/20 00:00:27;;;;;;;15.10;6.20;;;;;;;19.48;36.51;101725.53;5044859;28;20034;-72
2022/04/20 00:02:52;;;;;;;17.80;7.57;;;;;;;18.57;38.46;101719.53;5039331;28;20029;-72
2022/04/20 00:05:18;;;;;;;13.40;6.50;;;;;;;19.25;37.32;101717.50;5049462;28;20033;-72
2022/04/20 00:07:43;;;;;;;13.17;6.40;;;;;;;18.61;38.06;101715.88;5046229;28;20120;-72
2022/04/20 00:10:09;;;;;;;13.63;6.63;;;;;;;18.76;37.57;101728.66;5028322;28;20045;-73
2022/04/20 00:12:34;;;;;;;16.03;6.87;;;;;;;17.95;39.49;101726.53;5048261;28;20029;-74
2022/04/20 00:15:00;;;;;;;14.77;6.00;;;;;;;19.06;37.42;101718.06;5048516;28;20017;-72
2022/04/20 00:17:25;;;;;;;15.03;6.43;;;;;;;19.04;37.28;101711.97;5048397;28;20029;-72
2022/04/20 00:19:50;;;;;;;13.57;6.97;;;;;;;18.30;38.64;101727.38;5034956;28;20393;-72
2022/04/20 00:22:17;;;;;;;13.13;6.67;;;;;;;18.67;37.58;101726.31;5042774;28;20079;-72
2022/04/20 00:24:42;;;;;;;13.53;6.50;;;;;;;17.39;40.28;101722.66;5048344;28;20032;-72
2022/04/20 00:27:08;;;;;;;15.00;6.20;;;;;;;17.99;39.52;101727.34;5053822;28;20045;-72
2022/04/20 00:29:33;;;;;;;12.90;6.43;;;;;;;19.13;36.73;101713.44;5050686;28;20029;-73
2022/04/20 00:31:58;;;;;;;13.77;6.43;;;;;;;18.08;39.21;101733.25;5052231;28;20036;-73
2022/04/20 00:34:24;;;;;;;15.83;6.50;;;;;;;18.29;38.78;101731.78;5053135;28;20062;-72
2022/04/20 00:36:53;;;;;;;14.03;6.50;;;;;;;17.99;39.10;101733.50;5046287;28;20045;-72
2022/04/20 00:39:20;;;;;;;19.37;6.77;;;;;;;17.48;40.54;101736.53;5040777;28;20029;-72
2022/04/20 00:41:45;;;;;;;8.73;5.20;;;;;;;17.79;39.77;101737.50;5032591;28;20095;-73
2022/04/20 00:44:11;;;;;;;13.77;6.60;;;;;;;18.29;38.51;101733.56;5047708;28;20041;-72
2022/04/20 00:46:38;;;;;;;12.30;6.20;;;;;;;17.20;40.17;101726.63;5035516;28;20053;-72
2022/04/20 00:49:05;;;;;;;13.00;6.43;;;;;;;17.34;40.46;101734.22;5039978;28;20462;-72
2022/04/20 00:51:31;;;;;;;9.80;5.27;;;;;;;18.25;38.92;101734.56;5051806;28;20029;-73
2022/04/20 00:53:59;;;;;;;12.47;5.73;;;;;;;17.21;40.36;101723.09;5051810;28;20036;-73
2022/04/20 00:56:24;;;;;;;12.43;6.40;;;;;;;17.34;40.34;101729.81;5049084;28;20028;-72
2022/04/20 00:58:51;;;;;;;16.30;6.90;;;;;;;17.68;39.51;101733.38;5048678;28;20052;-72
2022/04/20 01:01:16;;;;;;;12.93;6.13;;;;;;;17.73;39.21;101727.06;5048555;28;20055;-73
2022/04/20 01:03:43;;;;;;;13.47;5.83;;;;;;;18.39;38.09;101724.44;5048690;28;20029;-73
2022/04/20 01:06:08;;;;;;;13.07;6.53;;;;;;;18.07;38.36;101734.16;5043296;28;20122;-72
2022/04/20 01:08:34;;;;;;;13.83;6.60;;;;;;;18.30;38.45;101738.81;5050153;28;20455;-73
2022/04/20 01:10:59;;;;;;;13.27;6.43;;;;;;;18.16;38.10;101740.97;5034046;28;20028;-73
2022/04/20 01:13:25;;;;;;;10.60;5.80;;;;;;;18.35;38.26;101738.66;5051985;28;20017;-72
2022/04/20 01:15:50;;;;;;;10.13;5.33;;;;;;;17.30;39.81;101738.72;5036031;28;20034;-72
2022/04/20 01:18:16;;;;;;;11.83;6.20;;;;;;;17.61;39.00;101737.94;5041187;28;20548;-73
2022/04/20 01:20:42;;;;;;;13.73;5.93;;;;;;;17.98;39.11;101731.75;5047723;28;20049;-72
2022/04/20 01:23:08;;;;;;;13.23;6.67;;;;;;;17.75;38.72;101729.66;5033461;28;20083;-73
2022/04/20 01:25:33;;;;;;;12.67;5.67;;;;;;;17.30;39.65;101725.50;5047286;28;20040;-72
2022/04/20 01:28:01;;;;;;;15.40;6.73;;;;;;;17.38;39.94;101731.47;5051469;28;20029;-73
2022/04/20 01:30:26;;;;;;;10.27;5.00;;;;;;;17.18;40.11;101725.81;5037732;28;20026;-72
2022/04/20 01:32:54;;;;;;;10.47;5.70;;;;;;;17.59;39.54;101732.72;5051505;28;20041;-73
2022/04/20 01:35:20;;;;;;;14.17;6.10;;;;;;;17.61;39.23;101732.66;5050304;28;20047;-72
2022/04/20 01:37:45;;;;;;;12.47;6.10;;;;;;;17.92;38.74;101731.94;5051014;28;20477;-72
2022/04/20 01:40:11;;;;;;;12.50;6.97;;;;;;;18.60;36.94;101722.97;5035735;28;20175;-72
2022/04/20 01:42:36;;;;;;;13.20;6.53;;;;;;;17.35;39.07;101736.84;5032723;28;20147;-72
2022/04/20 01:45:01;;;;;;;13.93;6.10;;;;;;;17.92;38.54;101739.84;5040534;28;20124;-72
2022/04/20 01:47:27;;;;;;;12.33;5.83;;;;;;;17.24;39.71;101733.56;5051054;28;20033;-72
2022/04/20 01:49:52;;;;;;;9.47;5.80;;;;;;;16.52;41.38;101730.72;5043987;28;20029;-72
2022/04/20 01:52:18;;;;;;;13.53;5.73;;;;;;;17.15;40.16;101739.09;5030579;28;20144;-72
2022/04/20 01:54:43;;;;;;;11.07;5.93;;;;;;;17.52;38.80;101738.22;5037696;28;20028;-72
2022/04/20 01:57:09;;;;;;;13.73;6.20;;;;;;;17.90;38.63;101739.88;5051246;28;20032;-72
2022/04/20 01:59:34;;;;;;;13.03;6.07;;;;;;;18.25;37.70;101743.34;5047965;28;20397;-72
2022/04/20 02:04:43;;;;;;;13.07;6.63;;;;;;;16.87;40.28;101744.94;5050124;28;20052;-72
2022/04/20 02:07:09;;;;;;;11.37;5.77;;;;;;;17.30;39.52;101744.00;5047109;28;20038;-72
2022/04/20 02:09:34;;;;;;;14.47;6.43;;;;;;;18.24;37.62;101733.66;5034963;28;20051;-74
2022/04/20 02:12:00;;;;;;;12.53;6.27;;;;;;;17.30;38.74;101734.28;5049765;28;20040;-73
2022/04/20 02:14:26;;;;;;;10.60;5.57;;;;;;;17.00;39.50;101725.31;5049205;28;20040;-73
2022/04/20 02:16:52;;;;;;;11.73;5.10;;;;;;;17.52;38.03;101722.34;5049232;28;20075;-72
2022/04/20 02:19:17;;;;;;;12.10;6.43;;;;;;;17.62;38.79;101723.84;5050169;28;20060;-72
2022/04/20 02:21:43;;;;;;;9.53;5.57;;;;;;;17.91;37.75;101727.50;5049844;28;20056;-72
2022/04/20 02:24:10;;;;;;;11.67;5.27;;;;;;;18.05;37.68;101722.75;5050301;28;20123;-72
2022/04/20 02:26:36;;;;;;;14.90;5.93;;;;;;;17.29;38.91;101723.75;5053534;28;20104;-72
2022/04/20 02:29:02;;;;;;;13.53;6.20;;;;;;;17.61;38.16;101727.38;5047893;28;20032;-73
2022/04/20 02:31:27;;;;;;;12.00;5.67;;;;;;;17.69;37.87;101717.47;5043649;28;20069;-72
2022/04/20 02:33:52;;;;;;;9.77;5.10;;;;;;;17.87;37.19;101729.34;5042018;28;20563;-72
2022/04/20 02:36:18;;;;;;;10.03;4.97;;;;;;;17.26;38.17;101726.50;5040997;28;20043;-72
2022/04/20 02:38:44;;;;;;;11.60;5.97;;;;;;;17.19;38.74;101719.63;5039973;28;20557;-72
2022/04/20 02:41:09;;;;;;;10.70;5.60;;;;;;;17.29;38.44;101721.13;5043746;28;20048;-72
2022/04/20 02:43:38;;;;;;;11.10;5.10;;;;;;;17.46;38.33;101718.94;5049259;28;20028;-73
2022/04/20 02:46:03;;;;;;;14.83;5.80;;;;;;;17.06;38.79;101714.63;5045604;28;20037;-73
2022/04/20 02:48:31;;;;;;;9.70;5.43;;;;;;;17.40;38.02;101719.09;5030893;28;20488;-73
2022/04/20 02:50:57;;;;;;;13.30;5.17;;;;;;;16.85;39.09;101715.06;5034380;28;20072;-73
2022/04/20 02:53:22;;;;;;;10.27;5.40;;;;;;;17.09;38.67;101713.66;5049977;28;20056;-72
2022/04/20 02:55:48;;;;;;;12.20;5.63;;;;;;;16.22;39.78;101726.00;5047365;28;20021;-73
2022/04/20 02:58:14;;;;;;;13.47;5.30;;;;;;;17.02;38.95;101718.25;5046963;28;20120;-72
2022/04/20 03:00:39;;;;;;;10.10;5.27;;;;;;;16.97;38.64;101728.03;5048730;28;20131;-72
2022/04/20 03:03:05;;;;;;;11.13;5.13;;;;;;;17.21;38.04;101738.94;5050469;28;20039;-72
2022/04/20 03:05:30;;;;;;;10.80;6.27;;;;;;;16.61;39.46;101733.19;5050377;28;20029;-73
2022/04/20 03:07:55;;;;;;;10.50;5.27;;;;;;;17.37;37.77;101742.94;5047718;28;20037;-72
2022/04/20 03:10:22;;;;;;;11.63;5.50;;;;;;;18.00;36.08;101735.22;5048888;28;20036;-73
2022/04/20 03:12:49;;;;;;;11.80;5.47;;;;;;;17.82;37.05;101739.19;5031910;28;20057;-73
2022/04/20 03:15:14;;;;;;;12.30;6.30;;;;;;;17.57;37.24;101741.59;5046258;28;20106;-73
2022/04/20 03:17:40;;;;;;;13.23;5.13;;;;;;;17.05;37.80;101744.56;5035586;28;20497;-72
2022/04/20 03:20:06;;;;;;;10.13;4.90;;;;;;;17.06;37.74;101735.75;5032062;28;20543;-72
2022/04/20 03:22:32;;;;;;;10.83;5.20;;;;;;;16.92;37.33;101737.81;5029738;28;20127;-71
2022/04/20 03:24:57;;;;;;;7.70;4.17;;;;;;;17.61;36.53;101743.25;5040284;28;20028;-72
2022/04/20 03:27:23;;;;;;;8.50;5.37;;;;;;;16.48;38.37;101752.81;5047879;28;20368;-72
2022/04/20 03:29:48;;;;;;;11.00;4.73;;;;;;;16.34;38.89;101750.44;5045100;28;20035;-72
2022/04/20 03:32:15;;;;;;;9.47;5.10;;;;;;;16.73;37.84;101754.03;5050344;28;20147;-72
2022/04/20 03:34:41;;;;;;;7.07;4.77;;;;;;;16.94;37.70;101750.09;5048898;28;20519;-72
2022/04/20 03:37:08;;;;;;;8.70;4.73;;;;;;;16.88;38.68;101747.53;5047535;28;20024;-72
2022/04/20 03:39:34;;;;;;;8.37;4.63;;;;;;;17.02;37.50;101749.94;5047085;28;20089;-72
2022/04/20 03:41:59;;;;;;;8.93;4.83;;;;;;;16.99;37.66;101749.97;5050402;28;20403;-72
2022/04/20 03:44:26;;;;;;;10.77;4.70;;;;;;;16.92;37.15;101753.66;5050363;28;20024;-72
2022/04/20 03:46:51;;;;;;;10.37;4.73;;;;;;;17.23;36.53;101750.34;5042786;28;20485;-72
2022/04/20 03:49:17;;;;;;;9.83;4.73;;;;;;;16.36;38.13;101754.78;5065403;28;20035;-72
2022/04/20 03:51:43;;;;;;;8.30;4.63;;;;;;;15.71;39.28;101745.38;5047879;28;20021;-72
2022/04/20 03:54:08;;;;;;;10.90;4.37;;;;;;;16.38;37.88;101752.97;5047466;28;20040;-72
2022/04/20 03:59:18;;;;;;;11.17;5.07;;;;;;;15.24;40.00;101750.50;5049714;28;20059;-72
2022/04/20 04:01:44;;;;;;;7.37;4.80;;;;;;;16.11;38.24;101759.66;5048709;28;20480;-72
2022/04/20 04:04:09;;;;;;;8.50;4.63;;;;;;;15.77;38.64;101758.47;5050285;28;20468;-72
2022/04/20 04:06:35;;;;;;;8.13;4.50;;;;;;;16.47;37.16;101758.97;5044197;28;20129;-72
2022/04/20 04:09:01;;;;;;;7.37;4.00;;;;;;;15.83;38.24;101764.56;5029027;28;20444;-72
2022/04/20 04:11:26;;;;;;;7.67;4.37;;;;;;;16.13;37.78;101762.25;5049534;28;20382;-72
2022/04/20 04:13:52;;;;;;;8.63;4.53;;;;;;;16.56;37.06;101767.56;5048029;28;20116;-72
2022/04/20 04:16:17;;;;;;;9.13;4.20;;;;;;;16.89;36.81;101759.03;5047452;28;20159;-72
2022/04/20 04:18:42;;;;;;;9.10;4.33;;;;;;;15.65;38.58;101761.28;5028467;28;20048;-72
2022/04/20 04:21:07;;;;;;;6.90;4.13;;;;;;;15.64;37.99;101764.81;5041605;28;20428;-72
2022/04/20 04:23:33;;;;;;;8.13;4.60;;;;;;;15.87;37.92;101771.53;5048588;28;20040;-72
2022/04/20 04:25:58;;;;;;;9.53;5.47;;;;;;;15.47;38.61;101761.56;5048908;28;20037;-72
2022/04/20 04:28:23;;;;;;;8.47;4.50;;;;;;;15.54;38.84;101763.25;5042252;28;20060;-72
2022/04/20 04:30:49;;;;;;;9.13;4.90;;;;;;;15.70;38.17;101759.47;5040142;28;20037;-72
2022/04/20 04:33:14;;;;;;;9.03;3.53;;;;;;;15.67;37.81;101767.41;5048420;28;20036;-72
2022/04/20 04:35:40;;;;;;;9.07;4.20;;;;;;;15.71;37.96;101766.44;5047772;28;20025;-72
2022/04/20 04:38:05;;;;;;;8.03;4.77;;;;;;;15.64;38.47;101771.88;5044118;28;20086;-72
2022/04/20 04:40:31;;;;;;;9.13;4.60;;;;;;;15.89;38.57;101769.72;5047556;28;20037;-72
2022/04/20 04:42:56;;;;;;;8.40;4.20;;;;;;;15.84;38.08;101776.81;5047566;28;20392;-72
2022/04/20 04:50:50;;;;;;;9.40;4.53;;;;;;;15.59;38.10;101790.38;5049620;28;20128;-72
2022/04/20 04:53:15;;;;;;;9.67;4.47;;;;;;;15.59;38.60;101783.34;5048566;28;20544;-72
2022/04/20 04:55:40;;;;;;;7.20;4.27;;;;;;;15.65;38.14;101781.50;5029131;28;20032;-72
2022/04/20 04:58:06;;;;;;;8.60;4.40;;;;;;;15.95;37.30;101782.81;5042790;28;20052;-72
2022/04/20 05:00:32;;;;;;;9.27;4.20;;;;;;;15.65;37.51;101787.66;5047997;28;20025;-72
2022/04/20 05:02:57;;;;;;;7.87;3.90;;;;;;;15.82;37.71;101791.81;5047485;28;20041;-72
2022/04/20 05:05:23;;;;;;;13.17;4.63;;;;;;;15.65;37.64;101792.91;5047811;28;20485;-72
2022/04/20 05:07:54;;;;;;;6.87;4.20;;;;;;;15.20;38.38;101797.97;5041662;28;20123;-72
2022/04/20 05:10:22;;;;;;;7.70;4.83;;;;;;;16.03;37.44;101799.38;5047797;28;20034;-72
2022/04/20 05:12:48;;;;;;;11.00;4.40;;;;;;;15.50;37.93;101801.06;5039895;28;20033;-72
2022/04/20 05:15:13;;;;;;;7.67;4.10;;;;;;;15.08;38.91;101812.19;5047239;28;20116;-72
2022/04/20 05:17:39;;;;;;;7.07;4.07;;;;;;;15.59;38.00;101803.53;5044756;28;20040;-72
2022/04/20 05:20:05;;;;;;;10.30;4.03;;;;;;;15.78;37.89;101810.28;5051621;28;20037;-72
2022/04/20 05:22:30;;;;;;;10.33;4.37;;;;;;;15.75;37.70;101805.03;5051738;28;20025;-72
2022/04/20 05:24:56;;;;;;;7.80;3.77;;;;;;;14.90;39.15;101808.03;5051718;28;20048;-72
2022/04/20 05:27:21;;;;;;;7.37;4.30;;;;;;;16.17;36.91;101811.41;5049170;28;20066;-72
2022/04/20 05:29:46;;;;;;;10.03;4.87;;;;;;;16.03;37.12;101812.53;5051031;28;20032;-72
2022/04/20 05:32:12;;;;;;;9.70;4.10;;;;;;;15.29;38.36;101811.03;5049390;28;20039;-72
2022/04/20 05:34:37;;;;;;;9.03;4.40;;;;;;;15.16;38.45;101814.72;5051302;28;20029;-72
2022/04/20 05:42:31;;;;;;;8.70;4.10;;;;;;;15.21;37.67;101818.16;5040618;28;20055;-72
2022/04/20 05:44:56;;;;;;;7.20;3.50;;;;;;;15.35;37.89;101810.94;5047458;28;20373;-72
2022/04/20 05:47:21;;;;;;;6.50;3.47;;;;;;;15.71;37.14;101811.25;5037105;28;20123;-72
2022/04/20 05:49:47;;;;;;;7.80;3.87;;;;;;;15.72;36.99;101810.38;5050487;28;20126;-72
2022/04/20 05:52:13;;;;;;;7.00;4.13;;;;;;;15.69;38.04;101817.44;5050875;28;20029;-72
2022/04/20 05:54:38;;;;;;;8.90;4.30;;;;;;;15.98;36.77;101819.66;5045882;28;20025;-72
2022/04/20 05:57:03;;;;;;;6.30;3.47;;;;;;;15.29;38.00;101821.56;5066921;28;20056;-72
2022/04/20 05:59:32;;;;;;;8.47;4.20;;;;;;;15.56;37.33;101822.91;5049851;28;20185;-72
2022/04/20 06:01:57;;;;;;;5.83;3.57;;;;;;;15.20;38.05;101817.28;5033408;28;20044;-72
2022/04/20 06:04:23;;;;;;;8.03;3.90;;;;;;;15.96;36.82;101821.44;5049553;28;20033;-71
2022/04/20 06:06:49;;;;;;;7.00;3.70;;;;;;;15.41;37.44;101810.84;5048348;28;20032;-73
2022/04/20 06:09:14;;;;;;;6.53;3.53;;;;;;;15.31;38.16;101827.66;5050023;28;20120;-72
2022/04/20 06:11:40;;;;;;;9.03;3.93;;;;;;;16.48;36.08;101821.41;5050264;28;20033;-73
2022/04/20 06:14:06;;;;;;;6.70;3.73;;;;;;;16.28;36.25;101827.94;5044972;28;20032;-73
2022/04/20 06:16:31;;;;;;;7.00;3.97;;;;;;;16.51;35.79;101816.06;5050652;28;20070;-72
2022/04/20 06:18:57;;;;;;;5.87;3.43;;;;;;;16.04;36.30;101819.53;5050095;28;20036;-72
2022/04/20 06:21:22;;;;;;;5.93;3.80;;;;;;;15.77;37.04;101828.72;5045909;28;20137;-72
2022/04/20 06:23:48;;;;;;;5.13;3.60;;;;;;;16.38;36.16;101829.50;5032206;28;20056;-72
2022/04/20 06:26:13;;;;;;;7.23;3.73;;;;;;;16.79;35.87;101822.53;5045988;28;20083;-72
2022/04/20 06:28:38;;;;;;;7.27;3.60;;;;;;;16.13;37.04;101828.19;5048901;28;20396;-73
2022/04/20 06:31:05;;;;;;;5.17;3.43;;;;;;;16.65;36.26;101819.31;5050403;28;20568;-72
2022/04/20 06:33:31;;;;;;;6.93;3.07;;;;;;;16.18;36.06;101819.28;5049976;28;20484;-73
2022/04/20 06:35:57;;;;;;;6.03;2.97;;;;;;;16.74;36.03;101819.13;5045028;28;20063;-72
2022/04/20 06:38:22;;;;;;;6.27;3.70;;;;;;;16.99;35.55;101823.91;5042160;28;20036;-72
2022/04/20 06:40:48;;;;;;;5.03;3.30;;;;;;;16.54;36.04;101831.84;5050124;28;20511;-72
2022/04/20 06:43:14;;;;;;;5.70;3.33;;;;;;;16.20;36.58;101827.19;5050249;28;20067;-73
2022/04/20 06:45:40;;;;;;;7.83;3.27;;;;;;;17.57;34.39;101821.78;5042951;28;20480;-73
2022/04/20 06:48:05;;;;;;;6.07;3.30;;;;;;;17.41;35.08;101826.53;5041714;28;20064;-73
2022/04/20 06:50:31;;;;;;;8.47;4.00;;;;;;;18.19;33.62;101832.63;5045727;28;20132;-73
2022/04/20 06:58:33;;;;;;;4.47;2.87;;;;;;;18.06;32.53;101835.56;5051896;28;20077;-73
2022/04/20 07:00:58;;;;;;;5.33;3.17;;;;;;;18.01;32.70;101842.78;5046490;28;20041;-72
2022/04/20 07:03:24;;;;;;;8.73;3.00;;;;;;;17.95;32.79;101832.34;5050631;28;20401;-73
2022/04/20 07:05:50;;;;;;;6.50;3.07;;;;;;;17.70;33.44;101835.56;5040015;28;20174;-73
2022/04/20 07:08:16;;;;;;;7.70;3.10;;;;;;;17.29;33.99;101837.38;5035248;28;20473;-73
2022/04/20 07:10:41;;;;;;;5.60;3.20;;;;;;;18.41;32.45;101836.44;5040004;28;20044;-73
2022/04/20 07:13:07;;;;;;;4.37;3.17;;;;;;;18.57;32.19;101836.00;5055634;28;20017;-73
2022/04/20 07:15:32;;;;;;;5.77;3.20;;;;;;;18.89;31.95;101840.44;5045659;28;20025;-73
2022/04/20 07:17:58;;;;;;;4.60;3.30;;;;;;;18.76;32.88;101842.53;5049687;28;20377;-72
2022/04/20 07:20:23;;;;;;;6.73;3.23;;;;;;;19.64;31.26;101831.09;5029161;28;20057;-72
2022/04/20 07:22:50;;;;;;;7.63;3.37;;;;;;;21.60;28.94;101831.22;5030080;28;20571;-73
2022/04/20 07:25:16;;;;;;;5.43;3.07;;;;;;;22.53;26.96;101842.34;5042185;28;20118;-73
2022/04/20 07:27:43;;;;;;;4.78;3.08;;;;;;;23.53;25.50;101836.88;5029441;28;20017;-73
2022/04/20 07:30:08;;;;;;;5.82;2.75;;;;;;;24.97;23.64;101836.66;5030609;28;20938;-74
2022/04/20 07:32:34;;;;;;;4.18;2.60;;;;;;;25.90;22.19;101825.09;5029439;28;20060;-74
2022/04/20 07:34:59;;;;;;;3.55;2.28;;;;;;;25.61;22.51;101844.69;5044241;28;20159;-74
2022/04/20 07:37:25;;;;;;;4.45;2.88;;;;;;;26.78;21.63;101840.41;5047378;28;20448;-74
2022/04/20 07:39:50;;;;;;;5.07;2.67;;;;;;;27.39;20.89;101840.13;5047544;28;20154;-74
2022/04/20 07:42:15;;;;;;;6.38;2.45;;;;;;;25.73;22.04;101836.81;5029317;28;20481;-73
2022/04/20 07:44:41;;;;;;;5.22;2.50;;;;;;;26.12;21.74;101839.06;5038359;28;20029;-74
2022/04/20 07:47:06;;;;;;;4.75;2.85;;;;;;;25.91;22.07;101834.00;5030870;28;20029;-73
2022/04/20 07:52:19;;;;;;;6.22;2.60;;;;;;;28.60;19.04;101833.72;5053808;28;20052;-74
2022/04/20 07:54:45;;;;;;;7.25;2.78;;;;;;;28.64;19.10;101838.91;5036194;28;20020;-74
2022/04/20 07:57:14;;;;;;;3.90;2.70;;;;;;;28.86;19.65;101833.69;5043199;28;20034;-74
2022/04/20 07:59:39;;;;;;;3.95;2.83;;;;;;;28.70;19.27;101833.06;5028424;28;20053;-74
2022/04/20 08:02:05;;;;;;;3.78;2.60;;;;;;;30.19;18.06;101840.03;5039070;28;20067;-74
2022/04/20 08:04:31;;;;;;;4.65;2.60;;;;;;;31.12;17.25;101838.13;5048111;28;20036;-74
2022/04/20 08:06:56;;;;;;;3.72;2.70;;;;;;;28.86;18.21;101849.84;5039209;28;20094;-74
2022/04/20 08:09:24;;;;;;;3.85;2.75;;;;;;;28.88;18.36;101839.84;5048462;28;20505;-74
2022/04/20 08:11:49;;;;;;;3.92;2.65;;;;;;;30.52;17.73;101846.47;5040073;28;20374;-74
2022/04/20 08:14:14;;;;;;;7.28;3.00;;;;;;;29.19;17.93;101850.19;5047860;28;20025;-74
2022/04/20 08:16:41;;;;;;;3.70;2.42;;;;;;;29.62;17.80;101841.63;5039947;28;20096;-74
2022/04/20 08:19:07;;;;;;;2.88;2.38;;;;;;;29.61;18.31;101845.31;5049744;28;20071;-74
2022/04/20 08:21:33;;;;;;;2.85;2.40;;;;;;;29.42;17.53;101843.16;5033515;28;20059;-74
2022/04/20 08:23:58;;;;;;;5.40;2.55;;;;;;;29.76;17.60;101848.69;5016681;28;20450;-74
2022/04/20 08:26:24;;;;;;;2.83;2.50;;;;;;;29.47;17.42;101851.75;5044588;28;20071;-73
2022/04/20 08:28:49;;;;;;;3.58;2.53;;;;;;;29.65;17.36;101852.19;5038133;28;20032;-74
2022/04/20 08:31:15;;;;;;;3.17;2.40;;;;;;;29.93;17.46;101844.72;5042554;28;20025;-74
2022/04/20 08:33:41;;;;;;;3.22;2.38;;;;;;;28.95;18.16;101848.31;5048357;28;20119;-73
2022/04/20 08:36:07;;;;;;;5.28;2.72;;;;;;;31.01;16.33;101851.59;5043932;28;20029;-74
2022/04/20 08:38:32;;;;;;;3.67;2.55;;;;;;;30.32;17.38;101860.63;5040668;28;20033;-73
2022/04/20 08:41:00;;;;;;;4.88;2.70;;;;;;;29.69;17.20;101860.88;5044430;28;20159;-74
2022/04/20 08:43:27;;;;;;;4.65;2.42;;;;;;;29.41;16.91;101854.88;5036779;28;20098;-73
2022/04/20 08:45:55;;;;;;;6.03;2.15;;;;;;;30.44;17.27;101860.53;5032941;28;20497;-73
2022/04/20 08:48:20;;;;;;;4.20;2.90;;;;;;;30.24;16.29;101854.00;5036000;28;20116;-74
2022/04/20 08:50:46;;;;;;;3.25;2.30;;;;;;;30.37;16.04;101850.34;5052360;28;20100;-73
2022/04/20 08:53:11;;;;;;;3.33;2.55;;;;;;;29.59;16.69;101847.25;5050994;28;20052;-73
2022/04/20 08:55:37;;;;;;;3.00;2.30;;;;;;;30.75;16.05;101849.19;5051084;28;20174;-73
2022/04/20 08:58:04;;;;;;;4.05;2.70;;;;;;;30.04;16.66;101846.59;5052226;28;20079;-75
2022/04/20 09:00:30;;;;;;;4.85;2.60;;;;;;;30.00;17.28;101840.59;5050886;28;20068;-73
2022/04/20 09:03:00;;;;;;;4.05;2.50;;;;;;;31.06;16.20;101844.84;5033572;28;20068;-73
2022/04/20 09:05:28;;;;;;;3.08;2.53;;;;;;;30.88;15.51;101849.88;5058589;28;20031;-73
2022/04/20 09:07:54;;;;;;;3.17;2.25;;;;;;;32.10;15.72;101836.28;5045801;28;20087;-73
2022/04/20 09:10:20;;;;;;;3.38;2.30;;;;;;;31.04;15.39;101843.28;5037342;28;20080;-75
2022/04/20 09:12:46;;;;;;;11.60;2.25;;;;;;;30.86;15.92;101843.78;5059339;28;20473;-73
2022/04/20 09:15:27;;;;;;;4.28;2.40;;;;;;;32.05;15.21;101835.81;5033360;28;20156;-74
2022/04/20 09:17:52;;;;;;;4.85;2.85;;;;;;;31.44;16.35;101842.69;5049509;28;20115;-74
2022/04/20 09:20:19;;;;;;;4.18;2.60;;;;;;;32.59;14.98;101832.00;5050805;28;20583;-73
2022/04/20 09:23:02;;;;;;;4.57;2.85;;;;;;;31.29;16.51;101834.88;5049038;28;20025;-73
2022/04/20 09:25:34;;;;;;;3.03;2.00;;;;;;;32.13;14.95;101838.69;5018649;28;20508;-73
2022/04/20 09:28:01;;;;;;;3.67;2.15;;;;;;;31.72;15.38;101840.41;5049738;28;20028;-74
2022/04/20 09:30:32;;;;;;;3.33;2.15;;;;;;;32.25;14.89;101837.66;5036368;28;20120;-73
2022/04/20 09:32:58;;;;;;;4.73;2.33;;;;;;;32.45;14.90;101826.94;5047428;28;20017;-73
2022/04/20 09:35:23;;;;;;;3.08;2.20;;;;;;;31.61;15.91;101836.78;5051752;28;20926;-74
2022/04/20 09:38:08;;;;;;;4.38;2.47;;;;;;;31.24;16.03;101828.13;5057869;28;20024;-73
2022/04/20 09:40:36;;;;;;;2.63;2.03;;;;;;;31.97;14.89;101831.94;5048970;28;20047;-74
2022/04/20 09:43:07;;;;;;;4.93;2.63;;;;;;;30.91;15.59;101833.47;5033412;28;20110;-73
2022/04/20 09:45:36;;;;;;;4.80;2.40;;;;;;;29.95;16.65;101834.69;5050425;28;20078;-74
2022/04/20 09:51:07;;;;;;;4.70;2.38;;;;;;;31.82;14.88;101825.13;5044396;28;20128;-72
2022/04/20 09:53:33;;;;;;;4.85;2.47;;;;;;;31.83;15.16;101826.81;5032787;28;20036;-74
2022/04/20 09:56:14;;;;;;;3.75;2.40;;;;;;;31.05;15.72;101832.38;5037027;28;20022;-73
2022/04/20 09:58:39;;;;;;;4.63;2.45;;;;;;;30.10;15.97;101836.22;5040126;28;20024;-73
2022/04/20 10:01:06;;;;;;;8.50;1.95;;;;;;;29.84;17.21;101819.34;5045640;28;20109;-75
2022/04/20 10:03:33;;;;;;;2.85;2.28;;;;;;;30.46;15.64;101830.78;5033035;28;20124;-73
2022/04/20 10:05:59;;;;;;;3.40;2.45;;;;;;;32.06;15.26;101815.91;5054627;28;20130;-73
2022/04/20 10:08:26;;;;;;;4.82;2.42;;;;;;;31.07;16.00;101824.16;5050954;28;20036;-73
2022/04/20 10:10:54;;;;;;;5.32;2.40;;;;;;;31.18;14.86;101815.16;5051063;28;20025;-74
2022/04/20 10:13:20;;;;;;;3.22;2.40;;;;;;;30.34;15.94;101805.59;5032697;28;20029;-74
2022/04/20 10:16:05;;;;;;;5.03;2.20;;;;;;;32.15;14.71;101807.03;5030415;28;20040;-73
2022/04/20 10:18:36;;;;;;;6.53;2.10;;;;;;;31.17;15.36;101810.75;5028926;28;20049;-72
2022/04/20 10:21:02;;;;;;;2.03;1.80;;;;;;;31.96;14.06;101802.31;5029281;28;20049;-74
2022/04/20 10:23:29;;;;;;;3.08;1.90;;;;;;;30.86;15.77;101806.00;5031801;28;20428;-73
2022/04/20 10:25:57;;;;;;;2.47;2.05;;;;;;;30.43;15.89;101798.63;5029621;28;20108;-73
2022/04/20 10:28:56;;;;;;;3.13;2.20;;;;;;;30.98;15.34;101806.81;5041308;28;20116;-73
2022/04/20 10:31:33;;;;;;;3.25;1.70;;;;;;;31.22;14.81;101795.88;5031426;28;20484;-73
2022/04/20 10:34:00;;;;;;;2.70;2.03;;;;;;;31.83;14.25;101788.16;5045498;28;20124;-73
2022/04/20 10:36:32;;;;;;;3.25;2.33;;;;;;;30.47;14.96;101794.72;5069501;28;20138;-73
2022/04/20 10:39:19;;;;;;;6.30;2.75;;;;;;;32.51;14.37;101793.06;5065216;28;20068;-73
2022/04/20 10:42:09;;;;;;;5.18;1.90;;;;;;;31.66;14.71;101792.31;5029593;28;20388;-73
2022/04/20 10:44:56;;;;;;;2.00;1.50;;;;;;;30.23;15.38;101792.97;5046260;28;20125;-74
2022/04/20 10:47:42;;;;;;;4.90;1.63;;;;;;;31.03;14.47;101774.09;5049906;28;20115;-74
2022/04/20 10:50:25;;;;;;;1.95;1.70;;;;;;;31.29;14.29;101785.41;5043826;28;20029;-73
2022/04/20 10:53:01;;;;;;;3.03;1.92;;;;;;;30.83;15.24;101784.66;5029075;28;20029;-74
2022/04/20 10:55:30;;;;;;;5.38;2.15;;;;;;;31.34;15.75;101767.00;5042235;28;20124;-74
2022/04/20 10:57:56;;;;;;;2.17;1.90;;;;;;;31.61;15.40;101769.25;5039782;28;20254;-74
2022/04/20 11:00:21;;;;;;;2.85;1.80;;;;;;;32.85;14.43;101768.44;5034720;28;20534;-74
2022/04/20 11:02:51;;;;;;;2.75;1.88;;;;;;;32.44;13.81;101755.75;5047358;28;20414;-74
2022/04/20 11:05:20;;;;;;;4.90;2.20;;;;;;;28.93;17.32;101759.66;5042948;28;20065;-74
2022/04/20 11:08:05;;;;;;;3.25;2.05;;;;;;;30.11;16.27;101766.97;5041027;28;20032;-75
2022/04/20 11:10:34;;;;;;;2.97;2.28;;;;;;;30.91;15.23;101760.59;5033605;28;20361;-75
2022/04/20 11:19:05;;;;;;;5.15;2.45;;;;;;;31.54;14.81;101750.94;5055923;28;20169;-74
2022/04/20 11:21:31;;;;;;;5.30;2.50;;;;;;;31.43;15.13;101743.75;5054504;28;20131;-74
2022/04/20 11:23:59;;;;;;;4.53;2.42;;;;;;;31.81;15.02;101747.75;5044809;28;20207;-74
2022/04/20 11:26:51;;;;;;;2.20;1.80;;;;;;;31.55;14.28;101741.84;5036081;28;20025;-74
2022/04/20 11:29:25;;;;;;;5.43;2.45;;;;;;;32.72;14.08;101739.78;5037752;28;20074;-74
2022/04/20 11:32:02;;;;;;;4.07;1.85;;;;;;;32.71;14.34;101745.34;5043900;28;20072;-74
2022/04/20 11:34:31;;;;;;;2.28;2.03;;;;;;;32.37;14.68;101738.38;5050487;28;20032;-74
2022/04/20 11:37:00;;;;;;;3.45;1.90;;;;;;;31.65;15.97;101731.16;5047506;28;20032;-74
2022/04/20 11:39:28;;;;;;;3.25;2.10;;;;;;;31.97;15.20;101726.50;5048617;28;20060;-75
2022/04/20 11:42:01;;;;;;;2.13;1.70;;;;;;;29.10;16.68;101734.19;5049671;28;20115;-75
2022/04/20 11:44:40;;;;;;;5.03;2.30;;;;;;;31.04;15.98;101721.84;5049103;28;20020;-74
2022/04/20 11:47:11;;;;;;;4.05;1.83;;;;;;;29.78;16.36;101733.56;5049181;28;20086;-74
2022/04/20 11:49:41;;;;;;;3.55;2.10;;;;;;;31.49;15.68;101723.47;5047820;28;20047;-75
2022/04/20 11:52:09;;;;;;;4.05;1.95;;;;;;;31.20;15.09;101714.16;5043546;28;20052;-75
2022/04/20 11:54:36;;;;;;;3.88;2.20;;;;;;;29.81;16.15;101721.72;5044470;28;20059;-74